sensor_id;sensor_type;location;lat;lon;timestamp;temperature;humidity
73955;DHT22;62306;52.516;13.290;2023-12-29T00:01:03;8.50;99.90
73955;DHT22;62306;52.516;13.290;2023-12-29T00:03:31;8.50;99.90
73955;DHT22;62306;52.516;13.290;2023-12-29T00:05:58;8.50;99.90
73955;DHT22;62306;52.516;13.290;2023-12-29T00:08:28;8.60;99.90
73955;DHT22;62306;52.516;13.290;2023-12-29T00:10:55;8.60;99.90
73955;DHT22;62306;52.516;13.290;2023-12-29T00:13:22;8.60;99.90
73955;DHT22;62306;52.516;13.290;2023-12-29T00:15:51;8.60;99.90
73955;DHT22;62306;52.516;13.290;2023-12-29T00:18:18;8.60;99.90
73955;DHT22;62306;52.516;13.290;2023-12-29T00:20:47;8.60;99.90
73955;DHT22;62306;52.516;13.290;2023-12-29T00:23:14;8.60;99.90
73955;DHT22;62306;52.516;13.290;2023-12-29T00:25:41;8.60;99.90
73955;DHT22;62306;52.516;13.290;2023-12-29T00:28:08;8.60;99.90
73955;DHT22;62306;52.516;13.290;2023-12-29T00:30:38;8.60;99.90
73955;DHT22;62306;52.516;13.290;2023-12-29T00:33:06;8.70;99.90
73955;DHT22;62306;52.516;13.290;2023-12-29T00:35:33;8.60;99.90
73955;DHT22;62306;52.516;13.290;2023-12-29T00:38:01;8.60;99.90
73955;DHT22;62306;52.516;13.290;2023-12-29T00:40:28;8.60;99.90
73955;DHT22;62306;52.516;13.290;2023-12-29T00:42:54;8.70;99.90
73955;DHT22;62306;52.516;13.290;2023-12-29T00:45:21;8.70;99.90
73955;DHT22;62306;52.516;13.290;2023-12-29T00:47:48;8.70;99.90
73955;DHT22;62306;52.516;13.290;2023-12-29T00:50:16;8.70;99.90
73955;DHT22;62306;52.516;13.290;2023-12-29T00:52:43;8.70;99.90
73955;DHT22;62306;52.516;13.290;2023-12-29T00:55:11;8.70;99.90
73955;DHT22;62306;52.516;13.290;2023-12-29T00:57:38;8.70;99.90
73955;DHT22;62306;52.516;13.290;2023-12-29T01:00:07;8.70;99.90
73955;DHT22;62306;52.516;13.290;2023-12-29T01:02:34;8.70;99.90
73955;DHT22;62306;52.516;13.290;2023-12-29T01:05:01;8.70;99.90
73955;DHT22;62306;52.516;13.290;2023-12-29T01:07:28;8.70;99.90
73955;DHT22;62306;52.516;13.290;2023-12-29T01:09:55;8.80;99.90
73955;DHT22;62306;52.516;13.290;2023-12-29T01:12:23;8.70;99.90
73955;DHT22;62306;52.516;13.290;2023-12-29T01:14:50;8.70;99.90
73955;DHT22;62306;52.516;13.290;2023-12-29T01:17:17;8.70;99.90
73955;DHT22;62306;52.516;13.290;2023-12-29T01:19:44;8.70;99.90
73955;DHT22;62306;52.516;13.290;2023-12-29T01:22:11;8.70;99.90
73955;DHT22;62306;52.516;13.290;2023-12-29T01:24:37;8.70;99.90
73955;DHT22;62306;52.516;13.290;2023-12-29T01:27:04;8.70;99.90
73955;DHT22;62306;52.516;13.290;2023-12-29T01:29:33;8.70;99.90
73955;DHT22;62306;52.516;13.290;2023-12-29T01:32:00;8.70;99.90
73955;DHT22;62306;52.516;13.290;2023-12-29T01:34:28;8.70;99.90
73955;DHT22;62306;52.516;13.290;2023-12-29T01:36:58;8.70;99.90
73955;DHT22;62306;52.516;13.290;2023-12-29T01:39:24;8.70;99.90
73955;DHT22;62306;52.516;13.290;2023-12-29T01:41:51;8.70;99.90
73955;DHT22;62306;52.516;13.290;2023-12-29T01:44:20;8.70;99.90
73955;DHT22;62306;52.516;13.290;2023-12-29T01:46:50;8.70;99.90
73955;DHT22;62306;52.516;13.290;2023-12-29T01:49:19;8.70;99.90
73955;DHT22;62306;52.516;13.290;2023-12-29T01:51:49;8.70;99.90
73955;DHT22;62306;52.516;13.290;2023-12-29T01:54:17;8.70;99.90
73955;DHT22;62306;52.516;13.290;2023-12-29T01:56:45;8.70;99.90
73955;DHT22;62306;52.516;13.290;2023-12-29T01:59:12;8.70;99.90
73955;DHT22;62306;52.516;13.290;2023-12-29T02:01:39;8.70;99.90
73955;DHT22;62306;52.516;13.290;2023-12-29T02:04:08;8.70;99.90
73955;DHT22;62306;52.516;13.290;2023-12-29T02:06:35;8.70;99.90
73955;DHT22;62306;52.516;13.290;2023-12-29T02:09:02;8.70;99.90
73955;DHT22;62306;52.516;13.290;2023-12-29T02:11:30;8.70;99.90
73955;DHT22;62306;52.516;13.290;2023-12-29T02:13:58;8.70;99.90
73955;DHT22;62306;52.516;13.290;2023-12-29T02:16:31;8.70;99.90
73955;DHT22;62306;52.516;13.290;2023-12-29T02:19:01;8.70;99.90
73955;DHT22;62306;52.516;13.290;2023-12-29T02:21:32;8.70;99.90
73955;DHT22;62306;52.516;13.290;2023-12-29T02:23:59;8.70;99.90
73955;DHT22;62306;52.516;13.290;2023-12-29T02:26:29;8.70;99.90
73955;DHT22;62306;52.516;13.290;2023-12-29T02:29:01;8.70;99.90
73955;DHT22;62306;52.516;13.290;2023-12-29T02:31:29;8.70;99.90
73955;DHT22;62306;52.516;13.290;2023-12-29T02:33:57;8.70;99.90
73955;DHT22;62306;52.516;13.290;2023-12-29T02:36:25;8.60;99.90
73955;DHT22;62306;52.516;13.290;2023-12-29T02:38:52;8.60;99.90
73955;DHT22;62306;52.516;13.290;2023-12-29T02:41:19;8.60;99.90
73955;DHT22;62306;52.516;13.290;2023-12-29T02:43:47;8.60;99.90
73955;DHT22;62306;52.516;13.290;2023-12-29T02:46:14;8.60;99.90
73955;DHT22;62306;52.516;13.290;2023-12-29T02:48:41;8.60;99.90
73955;DHT22;62306;52.516;13.290;2023-12-29T02:51:07;8.60;99.90
73955;DHT22;62306;52.516;13.290;2023-12-29T02:53:34;8.70;99.90
73955;DHT22;62306;52.516;13.290;2023-12-29T02:56:01;8.70;99.90
73955;DHT22;62306;52.516;13.290;2023-12-29T02:58:28;8.80;99.90
73955;DHT22;62306;52.516;13.290;2023-12-29T03:00:56;8.70;99.90
73955;DHT22;62306;52.516;13.290;2023-12-29T03:03:23;8.70;99.90
73955;DHT22;62306;52.516;13.290;2023-12-29T03:05:50;8.60;99.90
73955;DHT22;62306;52.516;13.290;2023-12-29T03:08:17;8.70;99.90
73955;DHT22;62306;52.516;13.290;2023-12-29T03:10:43;8.60;99.90
73955;DHT22;62306;52.516;13.290;2023-12-29T03:13:10;8.70;99.90
73955;DHT22;62306;52.516;13.290;2023-12-29T03:15:37;8.80;99.90
73955;DHT22;62306;52.516;13.290;2023-12-29T03:18:05;8.80;99.90
73955;DHT22;62306;52.516;13.290;2023-12-29T03:20:32;8.80;99.90
73955;DHT22;62306;52.516;13.290;2023-12-29T03:22:59;8.80;99.90
73955;DHT22;62306;52.516;13.290;2023-12-29T03:25:26;8.80;99.90
73955;DHT22;62306;52.516;13.290;2023-12-29T03:27:53;8.70;99.90
73955;DHT22;62306;52.516;13.290;2023-12-29T03:30:19;8.80;99.90
73955;DHT22;62306;52.516;13.290;2023-12-29T03:32:46;8.80;99.90
73955;DHT22;62306;52.516;13.290;2023-12-29T03:35:14;8.80;99.90
73955;DHT22;62306;52.516;13.290;2023-12-29T03:37:42;8.90;99.90
73955;DHT22;62306;52.516;13.290;2023-12-29T03:40:09;8.90;99.90
73955;DHT22;62306;52.516;13.290;2023-12-29T03:42:36;9.00;99.90
73955;DHT22;62306;52.516;13.290;2023-12-29T03:45:04;9.00;99.90
73955;DHT22;62306;52.516;13.290;2023-12-29T03:47:31;9.10;99.90
73955;DHT22;62306;52.516;13.290;2023-12-29T03:49:58;9.10;99.90
73955;DHT22;62306;52.516;13.290;2023-12-29T03:52:26;9.10;99.90
73955;DHT22;62306;52.516;13.290;2023-12-29T03:54:53;9.10;99.90
73955;DHT22;62306;52.516;13.290;2023-12-29T03:57:20;9.10;99.90
73955;DHT22;62306;52.516;13.290;2023-12-29T03:59:46;9.10;99.90
73955;DHT22;62306;52.516;13.290;2023-12-29T04:02:13;9.10;99.90
73955;DHT22;62306;52.516;13.290;2023-12-29T04:04:41;9.20;99.90
73955;DHT22;62306;52.516;13.290;2023-12-29T04:07:08;9.20;99.90
73955;DHT22;62306;52.516;13.290;2023-12-29T04:09:36;9.20;99.90
73955;DHT22;62306;52.516;13.290;2023-12-29T04:12:03;9.10;99.90
73955;DHT22;62306;52.516;13.290;2023-12-29T04:14:30;9.20;99.90
73955;DHT22;62306;52.516;13.290;2023-12-29T04:16:57;9.20;99.90
73955;DHT22;62306;52.516;13.290;2023-12-29T04:19:24;9.20;99.90
73955;DHT22;62306;52.516;13.290;2023-12-29T04:21:51;9.20;99.90
73955;DHT22;62306;52.516;13.290;2023-12-29T04:24:18;9.30;99.90
73955;DHT22;62306;52.516;13.290;2023-12-29T04:26:46;9.20;99.90
73955;DHT22;62306;52.516;13.290;2023-12-29T04:29:13;9.30;99.90
73955;DHT22;62306;52.516;13.290;2023-12-29T04:31:41;9.30;99.90
73955;DHT22;62306;52.516;13.290;2023-12-29T04:34:08;9.30;99.90
73955;DHT22;62306;52.516;13.290;2023-12-29T04:36:35;9.30;99.90
73955;DHT22;62306;52.516;13.290;2023-12-29T04:39:02;9.30;99.90
73955;DHT22;62306;52.516;13.290;2023-12-29T04:41:28;9.30;99.90
73955;DHT22;62306;52.516;13.290;2023-12-29T04:43:57;9.20;99.90
73955;DHT22;62306;52.516;13.290;2023-12-29T04:46:23;9.10;99.90
73955;DHT22;62306;52.516;13.290;2023-12-29T04:48:51;9.00;99.90
73955;DHT22;62306;52.516;13.290;2023-12-29T04:51:18;9.00;99.90
73955;DHT22;62306;52.516;13.290;2023-12-29T04:53:45;8.90;99.90
73955;DHT22;62306;52.516;13.290;2023-12-29T04:56:12;8.90;99.90
73955;DHT22;62306;52.516;13.290;2023-12-29T04:58:39;8.90;99.90
73955;DHT22;62306;52.516;13.290;2023-12-29T05:01:07;8.90;99.90
73955;DHT22;62306;52.516;13.290;2023-12-29T05:03:34;8.90;99.90
73955;DHT22;62306;52.516;13.290;2023-12-29T05:06:02;8.80;99.90
73955;DHT22;62306;52.516;13.290;2023-12-29T05:08:28;8.90;99.90
73955;DHT22;62306;52.516;13.290;2023-12-29T05:10:55;9.00;99.90
73955;DHT22;62306;52.516;13.290;2023-12-29T05:13:22;9.00;99.90
73955;DHT22;62306;52.516;13.290;2023-12-29T05:15:49;8.90;99.90
73955;DHT22;62306;52.516;13.290;2023-12-29T05:18:17;8.90;99.90
73955;DHT22;62306;52.516;13.290;2023-12-29T05:20:44;8.90;99.90
73955;DHT22;62306;52.516;13.290;2023-12-29T05:23:11;8.90;99.90
73955;DHT22;62306;52.516;13.290;2023-12-29T05:25:38;9.00;99.90
73955;DHT22;62306;52.516;13.290;2023-12-29T05:28:05;9.00;99.90
73955;DHT22;62306;52.516;13.290;2023-12-29T05:30:32;9.00;99.90
73955;DHT22;62306;52.516;13.290;2023-12-29T05:32:59;9.10;99.90
73955;DHT22;62306;52.516;13.290;2023-12-29T05:35:27;9.10;99.90
73955;DHT22;62306;52.516;13.290;2023-12-29T05:37:54;9.10;99.90
73955;DHT22;62306;52.516;13.290;2023-12-29T05:40:20;9.20;99.90
73955;DHT22;62306;52.516;13.290;2023-12-29T05:42:47;9.30;99.90
73955;DHT22;62306;52.516;13.290;2023-12-29T05:45:16;9.30;99.90
73955;DHT22;62306;52.516;13.290;2023-12-29T05:47:43;9.30;99.90
73955;DHT22;62306;52.516;13.290;2023-12-29T05:50:10;9.30;99.90
73955;DHT22;62306;52.516;13.290;2023-12-29T05:52:38;9.30;99.90
73955;DHT22;62306;52.516;13.290;2023-12-29T05:55:05;9.30;99.90
73955;DHT22;62306;52.516;13.290;2023-12-29T05:57:32;9.30;99.90
73955;DHT22;62306;52.516;13.290;2023-12-29T05:59:59;9.30;99.90
73955;DHT22;62306;52.516;13.290;2023-12-29T06:02:26;9.30;99.90
73955;DHT22;62306;52.516;13.290;2023-12-29T06:04:53;9.20;99.90
73955;DHT22;62306;52.516;13.290;2023-12-29T06:07:20;9.20;99.90
73955;DHT22;62306;52.516;13.290;2023-12-29T06:09:48;9.20;99.90
73955;DHT22;62306;52.516;13.290;2023-12-29T06:12:15;9.30;99.90
73955;DHT22;62306;52.516;13.290;2023-12-29T06:14:42;9.30;99.90
73955;DHT22;62306;52.516;13.290;2023-12-29T06:17:09;9.30;99.90
73955;DHT22;62306;52.516;13.290;2023-12-29T06:19:35;9.40;99.90
73955;DHT22;62306;52.516;13.290;2023-12-29T06:22:03;9.40;99.90
73955;DHT22;62306;52.516;13.290;2023-12-29T06:24:30;9.40;99.90
73955;DHT22;62306;52.516;13.290;2023-12-29T06:26:58;9.40;99.90
73955;DHT22;62306;52.516;13.290;2023-12-29T06:29:25;9.50;99.90
73955;DHT22;62306;52.516;13.290;2023-12-29T06:31:52;9.50;99.90
73955;DHT22;62306;52.516;13.290;2023-12-29T06:34:18;9.60;99.90
73955;DHT22;62306;52.516;13.290;2023-12-29T06:36:46;9.60;99.90
73955;DHT22;62306;52.516;13.290;2023-12-29T06:39:12;9.60;99.90
73955;DHT22;62306;52.516;13.290;2023-12-29T06:41:39;9.70;99.90
73955;DHT22;62306;52.516;13.290;2023-12-29T06:44:08;9.70;99.90
73955;DHT22;62306;52.516;13.290;2023-12-29T06:46:37;9.70;99.90
73955;DHT22;62306;52.516;13.290;2023-12-29T06:49:04;9.70;99.90
73955;DHT22;62306;52.516;13.290;2023-12-29T06:51:30;9.70;99.90
73955;DHT22;62306;52.516;13.290;2023-12-29T06:53:57;9.80;99.90
73955;DHT22;62306;52.516;13.290;2023-12-29T06:56:25;9.70;99.90
73955;DHT22;62306;52.516;13.290;2023-12-29T06:58:52;9.70;99.90
73955;DHT22;62306;52.516;13.290;2023-12-29T07:01:21;9.70;99.90
73955;DHT22;62306;52.516;13.290;2023-12-29T07:03:47;9.70;99.90
73955;DHT22;62306;52.516;13.290;2023-12-29T07:06:14;9.70;99.90
73955;DHT22;62306;52.516;13.290;2023-12-29T07:08:41;9.70;99.90
73955;DHT22;62306;52.516;13.290;2023-12-29T07:11:09;9.70;99.90
73955;DHT22;62306;52.516;13.290;2023-12-29T07:13:37;9.70;99.90
73955;DHT22;62306;52.516;13.290;2023-12-29T07:16:05;9.70;99.90
73955;DHT22;62306;52.516;13.290;2023-12-29T07:18:33;9.70;99.90
73955;DHT22;62306;52.516;13.290;2023-12-29T07:21:00;9.70;99.90
73955;DHT22;62306;52.516;13.290;2023-12-29T07:23:27;10.30;99.90
73955;DHT22;62306;52.516;13.290;2023-12-29T07:25:54;9.80;99.90
73955;DHT22;62306;52.516;13.290;2023-12-29T07:28:21;9.70;99.90
73955;DHT22;62306;52.516;13.290;2023-12-29T07:30:48;9.80;99.90
73955;DHT22;62306;52.516;13.290;2023-12-29T07:33:14;9.80;99.90
73955;DHT22;62306;52.516;13.290;2023-12-29T07:35:43;9.80;99.90
73955;DHT22;62306;52.516;13.290;2023-12-29T07:38:10;9.80;99.90
73955;DHT22;62306;52.516;13.290;2023-12-29T07:40:37;9.90;99.90
73955;DHT22;62306;52.516;13.290;2023-12-29T07:43:04;9.80;99.90
73955;DHT22;62306;52.516;13.290;2023-12-29T07:45:31;9.80;99.90
73955;DHT22;62306;52.516;13.290;2023-12-29T07:47:58;9.80;99.90
73955;DHT22;62306;52.516;13.290;2023-12-29T07:50:25;9.80;99.90
73955;DHT22;62306;52.516;13.290;2023-12-29T07:52:53;9.80;99.90
73955;DHT22;62306;52.516;13.290;2023-12-29T07:55:20;9.80;99.90
73955;DHT22;62306;52.516;13.290;2023-12-29T07:57:47;9.80;99.90
73955;DHT22;62306;52.516;13.290;2023-12-29T08:00:15;9.90;99.90
73955;DHT22;62306;52.516;13.290;2023-12-29T08:02:42;10.00;99.90
73955;DHT22;62306;52.516;13.290;2023-12-29T08:05:09;10.10;99.90
73955;DHT22;62306;52.516;13.290;2023-12-29T08:07:36;10.20;99.90
73955;DHT22;62306;52.516;13.290;2023-12-29T08:10:05;10.20;99.90
73955;DHT22;62306;52.516;13.290;2023-12-29T08:12:32;10.30;99.90
73955;DHT22;62306;52.516;13.290;2023-12-29T08:15:00;10.40;99.90
73955;DHT22;62306;52.516;13.290;2023-12-29T08:17:27;10.30;99.90
73955;DHT22;62306;52.516;13.290;2023-12-29T08:19:54;10.40;99.90
73955;DHT22;62306;52.516;13.290;2023-12-29T08:22:21;10.40;99.90
73955;DHT22;62306;52.516;13.290;2023-12-29T08:24:48;10.40;99.90
73955;DHT22;62306;52.516;13.290;2023-12-29T08:27:22;10.50;99.90
73955;DHT22;62306;52.516;13.290;2023-12-29T08:29:49;10.50;99.90
73955;DHT22;62306;52.516;13.290;2023-12-29T08:32:16;10.60;99.90
73955;DHT22;62306;52.516;13.290;2023-12-29T08:34:43;10.70;99.90
73955;DHT22;62306;52.516;13.290;2023-12-29T08:37:10;10.60;99.90
73955;DHT22;62306;52.516;13.290;2023-12-29T08:39:37;10.70;99.90
73955;DHT22;62306;52.516;13.290;2023-12-29T08:42:04;10.70;99.90
73955;DHT22;62306;52.516;13.290;2023-12-29T08:44:33;10.80;99.90
73955;DHT22;62306;52.516;13.290;2023-12-29T08:46:59;10.80;99.90
73955;DHT22;62306;52.516;13.290;2023-12-29T08:49:26;10.80;99.90
73955;DHT22;62306;52.516;13.290;2023-12-29T08:51:53;10.80;99.90
73955;DHT22;62306;52.516;13.290;2023-12-29T08:54:20;10.80;99.90
73955;DHT22;62306;52.516;13.290;2023-12-29T08:56:47;10.70;99.90
73955;DHT22;62306;52.516;13.290;2023-12-29T08:59:14;10.60;99.90
73955;DHT22;62306;52.516;13.290;2023-12-29T09:01:42;10.50;99.90
73955;DHT22;62306;52.516;13.290;2023-12-29T09:04:09;10.50;99.90
73955;DHT22;62306;52.516;13.290;2023-12-29T09:06:36;10.50;99.90
73955;DHT22;62306;52.516;13.290;2023-12-29T09:09:03;10.50;99.90
73955;DHT22;62306;52.516;13.290;2023-12-29T09:11:29;10.50;99.90
73955;DHT22;62306;52.516;13.290;2023-12-29T09:13:56;10.70;99.90
73955;DHT22;62306;52.516;13.290;2023-12-29T09:16:23;10.80;99.90
73955;DHT22;62306;52.516;13.290;2023-12-29T09:18:51;10.90;99.90
73955;DHT22;62306;52.516;13.290;2023-12-29T09:21:18;10.90;99.90
73955;DHT22;62306;52.516;13.290;2023-12-29T09:23:45;10.90;99.90
73955;DHT22;62306;52.516;13.290;2023-12-29T09:26:12;10.90;99.90
73955;DHT22;62306;52.516;13.290;2023-12-29T09:28:42;10.90;99.90
73955;DHT22;62306;52.516;13.290;2023-12-29T09:31:09;10.90;99.90
73955;DHT22;62306;52.516;13.290;2023-12-29T09:33:36;11.00;99.90
73955;DHT22;62306;52.516;13.290;2023-12-29T09:36:05;11.00;99.90
73955;DHT22;62306;52.516;13.290;2023-12-29T09:38:33;11.10;99.90
73955;DHT22;62306;52.516;13.290;2023-12-29T09:41:04;11.20;99.90
73955;DHT22;62306;52.516;13.290;2023-12-29T09:43:32;11.30;99.90
73955;DHT22;62306;52.516;13.290;2023-12-29T09:45:59;11.20;99.90
73955;DHT22;62306;52.516;13.290;2023-12-29T09:48:27;11.20;99.90
73955;DHT22;62306;52.516;13.290;2023-12-29T09:50:54;11.30;99.90
73955;DHT22;62306;52.516;13.290;2023-12-29T09:53:23;11.20;99.90
73955;DHT22;62306;52.516;13.290;2023-12-29T09:55:51;11.20;99.90
73955;DHT22;62306;52.516;13.290;2023-12-29T09:58:19;11.20;99.90
73955;DHT22;62306;52.516;13.290;2023-12-29T10:00:49;11.20;99.90
73955;DHT22;62306;52.516;13.290;2023-12-29T10:03:16;11.30;99.90
73955;DHT22;62306;52.516;13.290;2023-12-29T10:05:44;11.40;99.90
73955;DHT22;62306;52.516;13.290;2023-12-29T10:08:12;11.50;99.90
73955;DHT22;62306;52.516;13.290;2023-12-29T10:10:42;11.50;99.90
73955;DHT22;62306;52.516;13.290;2023-12-29T10:13:10;11.50;99.90
73955;DHT22;62306;52.516;13.290;2023-12-29T10:15:45;11.50;99.90
73955;DHT22;62306;52.516;13.290;2023-12-29T10:18:19;11.60;99.90
73955;DHT22;62306;52.516;13.290;2023-12-29T10:20:52;11.60;99.90
73955;DHT22;62306;52.516;13.290;2023-12-29T10:23:27;11.60;99.90
73955;DHT22;62306;52.516;13.290;2023-12-29T10:25:56;11.70;99.90
73955;DHT22;62306;52.516;13.290;2023-12-29T10:28:23;11.70;99.90
73955;DHT22;62306;52.516;13.290;2023-12-29T10:30:50;11.70;99.90
73955;DHT22;62306;52.516;13.290;2023-12-29T10:33:19;11.70;99.90
73955;DHT22;62306;52.516;13.290;2023-12-29T10:35:57;11.80;99.90
73955;DHT22;62306;52.516;13.290;2023-12-29T10:38:27;11.80;99.90
73955;DHT22;62306;52.516;13.290;2023-12-29T10:41:10;11.80;99.90
73955;DHT22;62306;52.516;13.290;2023-12-29T10:43:38;11.80;99.90
73955;DHT22;62306;52.516;13.290;2023-12-29T10:46:09;11.90;99.90
73955;DHT22;62306;52.516;13.290;2023-12-29T10:48:36;11.90;99.90
73955;DHT22;62306;52.516;13.290;2023-12-29T10:51:03;11.90;99.90
73955;DHT22;62306;52.516;13.290;2023-12-29T10:53:31;11.90;99.90
73955;DHT22;62306;52.516;13.290;2023-12-29T10:56:00;11.90;99.90
73955;DHT22;62306;52.516;13.290;2023-12-29T10:58:27;11.90;99.90
73955;DHT22;62306;52.516;13.290;2023-12-29T11:00:55;12.00;99.90
73955;DHT22;62306;52.516;13.290;2023-12-29T11:03:22;12.10;99.90
73955;DHT22;62306;52.516;13.290;2023-12-29T11:05:49;12.10;99.90
73955;DHT22;62306;52.516;13.290;2023-12-29T11:08:17;12.10;99.90
73955;DHT22;62306;52.516;13.290;2023-12-29T11:10:45;12.10;99.90
73955;DHT22;62306;52.516;13.290;2023-12-29T11:13:13;12.00;99.90
73955;DHT22;62306;52.516;13.290;2023-12-29T11:15:42;12.00;99.90
73955;DHT22;62306;52.516;13.290;2023-12-29T11:18:12;12.00;99.90
73955;DHT22;62306;52.516;13.290;2023-12-29T11:20:41;12.00;99.90
73955;DHT22;62306;52.516;13.290;2023-12-29T11:23:10;12.00;99.90
73955;DHT22;62306;52.516;13.290;2023-12-29T11:25:39;11.90;99.90
73955;DHT22;62306;52.516;13.290;2023-12-29T11:28:08;11.90;99.90
73955;DHT22;62306;52.516;13.290;2023-12-29T11:30:36;11.90;99.90
73955;DHT22;62306;52.516;13.290;2023-12-29T11:33:10;11.90;99.90
73955;DHT22;62306;52.516;13.290;2023-12-29T11:35:43;11.80;99.90
73955;DHT22;62306;52.516;13.290;2023-12-29T11:38:33;11.80;99.90
73955;DHT22;62306;52.516;13.290;2023-12-29T11:41:09;11.70;99.90
73955;DHT22;62306;52.516;13.290;2023-12-29T11:43:37;11.80;99.90
73955;DHT22;62306;52.516;13.290;2023-12-29T11:46:06;11.80;99.90
73955;DHT22;62306;52.516;13.290;2023-12-29T11:48:53;11.70;99.90
73955;DHT22;62306;52.516;13.290;2023-12-29T11:51:33;11.80;99.90
73955;DHT22;62306;52.516;13.290;2023-12-29T11:54:00;11.80;99.90
73955;DHT22;62306;52.516;13.290;2023-12-29T11:56:34;11.80;99.90
73955;DHT22;62306;52.516;13.290;2023-12-29T11:59:17;11.80;99.90
73955;DHT22;62306;52.516;13.290;2023-12-29T12:01:48;11.90;99.90
73955;DHT22;62306;52.516;13.290;2023-12-29T12:04:33;11.80;99.90
73955;DHT22;62306;52.516;13.290;2023-12-29T12:07:00;11.90;99.90
73955;DHT22;62306;52.516;13.290;2023-12-29T12:09:27;11.80;99.90
73955;DHT22;62306;52.516;13.290;2023-12-29T12:11:54;11.80;99.90
73955;DHT22;62306;52.516;13.290;2023-12-29T12:14:46;11.80;99.90
73955;DHT22;62306;52.516;13.290;2023-12-29T12:17:28;11.70;99.90
73955;DHT22;62306;52.516;13.290;2023-12-29T12:19:59;11.80;99.90
73955;DHT22;62306;52.516;13.290;2023-12-29T12:22:30;11.70;99.90
73955;DHT22;62306;52.516;13.290;2023-12-29T12:24:57;11.70;99.90
73955;DHT22;62306;52.516;13.290;2023-12-29T12:27:25;11.60;99.90
73955;DHT22;62306;52.516;13.290;2023-12-29T12:29:56;11.70;99.90
73955;DHT22;62306;52.516;13.290;2023-12-29T12:32:25;11.60;99.90
73955;DHT22;62306;52.516;13.290;2023-12-29T12:34:53;11.50;99.90
73955;DHT22;62306;52.516;13.290;2023-12-29T12:37:21;11.50;99.90
73955;DHT22;62306;52.516;13.290;2023-12-29T12:39:48;11.50;99.90
73955;DHT22;62306;52.516;13.290;2023-12-29T12:42:16;11.50;99.90
73955;DHT22;62306;52.516;13.290;2023-12-29T12:44:48;11.40;99.90
73955;DHT22;62306;52.516;13.290;2023-12-29T12:47:24;11.40;99.90
73955;DHT22;62306;52.516;13.290;2023-12-29T12:49:53;11.20;99.90
73955;DHT22;62306;52.516;13.290;2023-12-29T12:52:20;11.20;99.90
73955;DHT22;62306;52.516;13.290;2023-12-29T12:54:47;11.20;99.90
73955;DHT22;62306;52.516;13.290;2023-12-29T12:57:19;11.20;99.90
73955;DHT22;62306;52.516;13.290;2023-12-29T12:59:46;11.20;99.90
73955;DHT22;62306;52.516;13.290;2023-12-29T13:02:13;11.20;99.90
73955;DHT22;62306;52.516;13.290;2023-12-29T13:04:40;11.20;99.90
73955;DHT22;62306;52.516;13.290;2023-12-29T13:07:09;11.10;99.90
73955;DHT22;62306;52.516;13.290;2023-12-29T13:09:36;11.00;99.90
73955;DHT22;62306;52.516;13.290;2023-12-29T13:12:10;11.00;99.90
73955;DHT22;62306;52.516;13.290;2023-12-29T13:14:38;11.10;99.90
73955;DHT22;62306;52.516;13.290;2023-12-29T13:17:06;11.10;99.90
73955;DHT22;62306;52.516;13.290;2023-12-29T13:19:33;11.10;99.90
73955;DHT22;62306;52.516;13.290;2023-12-29T13:22:01;11.10;99.90
73955;DHT22;62306;52.516;13.290;2023-12-29T13:24:30;11.10;99.90
73955;DHT22;62306;52.516;13.290;2023-12-29T13:27:02;11.10;99.90
73955;DHT22;62306;52.516;13.290;2023-12-29T13:29:31;11.20;99.90
73955;DHT22;62306;52.516;13.290;2023-12-29T13:32:00;11.20;99.90
73955;DHT22;62306;52.516;13.290;2023-12-29T13:34:37;11.20;99.90
73955;DHT22;62306;52.516;13.290;2023-12-29T13:37:13;11.20;99.90
73955;DHT22;62306;52.516;13.290;2023-12-29T13:39:46;11.20;99.90
73955;DHT22;62306;52.516;13.290;2023-12-29T13:42:18;11.30;99.90
73955;DHT22;62306;52.516;13.290;2023-12-29T13:44:46;11.30;99.90
73955;DHT22;62306;52.516;13.290;2023-12-29T13:47:14;11.20;99.90
73955;DHT22;62306;52.516;13.290;2023-12-29T13:49:42;11.20;99.90
73955;DHT22;62306;52.516;13.290;2023-12-29T13:52:09;10.90;99.90
73955;DHT22;62306;52.516;13.290;2023-12-29T13:54:44;11.20;99.90
73955;DHT22;62306;52.516;13.290;2023-12-29T13:57:11;11.20;99.90
73955;DHT22;62306;52.516;13.290;2023-12-29T13:59:38;11.20;99.90
73955;DHT22;62306;52.516;13.290;2023-12-29T14:02:20;11.30;99.90
73955;DHT22;62306;52.516;13.290;2023-12-29T14:05:05;11.30;99.90
73955;DHT22;62306;52.516;13.290;2023-12-29T14:07:37;11.20;99.90
73955;DHT22;62306;52.516;13.290;2023-12-29T14:10:06;11.20;99.90
73955;DHT22;62306;52.516;13.290;2023-12-29T14:12:33;11.20;99.90
73955;DHT22;62306;52.516;13.290;2023-12-29T14:15:03;11.20;99.90
73955;DHT22;62306;52.516;13.290;2023-12-29T14:17:30;11.20;99.90
73955;DHT22;62306;52.516;13.290;2023-12-29T14:19:59;11.20;99.90
73955;DHT22;62306;52.516;13.290;2023-12-29T14:22:31;11.30;99.90
73955;DHT22;62306;52.516;13.290;2023-12-29T14:25:00;11.20;99.90
73955;DHT22;62306;52.516;13.290;2023-12-29T14:27:29;11.20;99.90
73955;DHT22;62306;52.516;13.290;2023-12-29T14:29:56;11.20;99.90
73955;DHT22;62306;52.516;13.290;2023-12-29T14:32:24;11.20;99.90
73955;DHT22;62306;52.516;13.290;2023-12-29T14:34:51;11.20;99.90
73955;DHT22;62306;52.516;13.290;2023-12-29T14:37:20;11.20;99.90
73955;DHT22;62306;52.516;13.290;2023-12-29T14:39:48;11.20;99.90
73955;DHT22;62306;52.516;13.290;2023-12-29T14:42:15;11.10;99.90
73955;DHT22;62306;52.516;13.290;2023-12-29T14:44:45;11.20;99.90
73955;DHT22;62306;52.516;13.290;2023-12-29T14:47:12;11.20;99.90
73955;DHT22;62306;52.516;13.290;2023-12-29T14:49:39;11.20;99.90
73955;DHT22;62306;52.516;13.290;2023-12-29T14:52:06;11.20;99.90
73955;DHT22;62306;52.516;13.290;2023-12-29T14:54:33;11.20;99.90
73955;DHT22;62306;52.516;13.290;2023-12-29T14:57:00;11.20;99.90
73955;DHT22;62306;52.516;13.290;2023-12-29T14:59:27;11.20;99.90
73955;DHT22;62306;52.516;13.290;2023-12-29T15:01:57;11.30;99.90
73955;DHT22;62306;52.516;13.290;2023-12-29T15:04:24;11.20;99.90
73955;DHT22;62306;52.516;13.290;2023-12-29T15:06:51;11.20;99.90
73955;DHT22;62306;52.516;13.290;2023-12-29T15:09:18;11.10;99.90
73955;DHT22;62306;52.516;13.290;2023-12-29T15:11:45;11.00;99.90
73955;DHT22;62306;52.516;13.290;2023-12-29T15:14:15;10.90;99.90
73955;DHT22;62306;52.516;13.290;2023-12-29T15:16:41;10.90;99.90
73955;DHT22;62306;52.516;13.290;2023-12-29T15:19:10;10.80;99.90
73955;DHT22;62306;52.516;13.290;2023-12-29T15:21:37;10.80;99.90
73955;DHT22;62306;52.516;13.290;2023-12-29T15:24:05;10.70;99.90
73955;DHT22;62306;52.516;13.290;2023-12-29T15:26:32;10.70;99.90
73955;DHT22;62306;52.516;13.290;2023-12-29T15:28:59;10.80;99.90